Aeroporto :
LOGIN :

Iscrizione | Disclaimer

   EN    FR    IT 

 










Sommario :    VFR   VFR Marginale   IFR   IFR Intensivo   IFR Molto Intensivo
Visibilità : 
Base nubi : 
>= 8 km
>= 3000ft
5 / 8 km
1000 / 3000 ft
1500m / 5 km
500 / 1000 ft
800 / 1500m
200 / 500 ft
< 800m
< 200 ft
Simboli :   Temporali  Nebbia  Neve Forte  Precipitazioni Forti  Vento > 20 kt
SIGMETs :   Varie  Temporali  Ghiacco  Turbolenza  Onda orograficha  Ceneri Vulcaniche







- Altitudine del aeroporto : 59 ft
- Codice IATA : TSF


LIPH - Treviso

ULTIMO METAR :
  • 230650Z 35004KT 310V030 CAVOK 24/19 Q1021

METARs OBSOLETI :
  • 230620Z 02003KT 350V060 CAVOK 23/18 Q1021
  • 230550Z 03005KT CAVOK 23/18 Q1021
  • 230520Z 04005KT CAVOK 22/18 Q1021
  • 230450Z AUTO 03004KT 350V060 9999 FEW140/// BKN190/// 22/18 Q1021
  • 230420Z AUTO 03005KT 360V060 9999 FEW110/// BKN140/// BKN190/// 22/18 Q1021

TAF TAF LIPH
Valido dal 23 a 06 ore il 24 a 06 ore UTC


230500Z 2306/2406 VRB05KT 9999 SCT040
Nessun NOTAM noto per questo aeroporto.



MetMap, La meteo Aeronautica in un colpo d'occhio ! - Copyright ORBIFLY Dicembre 2007 - Disclaimer

ORBIFLY MET'MAP TEAM :

Programmazione e sviluppo : Alexandra Zaïnal
Concezione e sviluppo : Baudouin d'Aumeries
Co-Programmazione e sviluppo : Marc-Olivier Méhu
Supporto tecnico e logistico : Manuel Goepfert
Aiuto per la traduzione : Arnaldo La Scala

Contatto : metmap@orbifly.com




FONTI E CREDITI :

   NOAA